createdAt,value
2019-01-27T00:01:27.853Z,34.70
2019-01-27T00:03:58.238Z,37.83
2019-01-27T00:06:28.551Z,34.37
2019-01-27T00:08:58.884Z,34.83
2019-01-27T00:11:29.230Z,34.70
2019-01-27T00:13:59.553Z,35.27
2019-01-27T00:16:29.851Z,34.53
2019-01-27T00:19:00.347Z,34.40
2019-01-27T00:21:31.873Z,35.43
2019-01-27T00:24:02.237Z,34.93
2019-01-27T00:26:40.977Z,35.67
2019-01-27T00:29:11.751Z,35.60
2019-01-27T00:31:43.634Z,36.00
2019-01-27T00:34:17.852Z,33.27
2019-01-27T00:39:38.886Z,37.60
2019-01-27T00:42:12.245Z,37.83
2019-01-27T00:44:42.555Z,37.13
2019-01-27T00:47:12.890Z,38.43
2019-01-27T00:49:43.216Z,37.13
2019-01-27T00:52:13.527Z,39.13
2019-01-27T00:54:43.871Z,38.87
2019-01-27T00:57:14.180Z,38.17
2019-01-27T00:59:44.454Z,38.57
2019-01-27T01:02:14.787Z,37.53
2019-01-27T01:04:45.150Z,40.37
2019-01-27T01:07:15.460Z,39.97
2019-01-27T01:09:45.799Z,37.53
2019-01-27T01:12:16.274Z,38.60
2019-01-27T01:14:46.585Z,38.03
2019-01-27T01:17:16.914Z,38.30
2019-01-27T01:19:47.265Z,37.20
2019-01-27T01:22:17.619Z,36.17
2019-01-27T01:24:47.959Z,34.07
2019-01-27T01:27:18.267Z,36.60
2019-01-27T01:29:48.567Z,38.57
2019-01-27T01:32:18.894Z,36.03
2019-01-27T01:34:49.139Z,36.10
2019-01-27T01:37:19.531Z,35.90
2019-01-27T01:39:49.884Z,34.57
2019-01-27T01:42:20.256Z,37.07
2019-01-27T01:44:50.553Z,32.13
2019-01-27T01:47:20.906Z,35.43
2019-01-27T01:49:51.312Z,32.93
2019-01-27T01:52:21.609Z,34.03
2019-01-27T01:54:51.966Z,32.47
2019-01-27T01:57:22.319Z,33.47
2019-01-27T01:59:52.667Z,34.07
2019-01-27T02:02:23.046Z,33.73
2019-01-27T02:04:53.443Z,35.30
2019-01-27T02:07:24.067Z,32.77
2019-01-27T02:09:54.421Z,34.40
2019-01-27T02:12:24.750Z,41.80
2019-01-27T02:14:55.080Z,33.97
2019-01-27T02:17:25.439Z,36.57
2019-01-27T02:19:55.787Z,36.27
2019-01-27T02:22:26.144Z,37.07
2019-01-27T02:24:56.531Z,35.93
2019-01-27T02:27:26.826Z,33.00
2019-01-27T02:29:57.171Z,33.77
2019-01-27T02:32:27.499Z,32.77
2019-01-27T02:34:57.853Z,33.27
2019-01-27T02:37:28.201Z,33.53
2019-01-27T02:39:58.444Z,33.93
2019-01-27T02:42:28.772Z,32.90
2019-01-27T02:44:59.096Z,32.00
2019-01-27T02:47:29.402Z,32.67
2019-01-27T02:49:59.688Z,33.30
2019-01-27T02:52:29.976Z,34.10
2019-01-27T02:55:00.300Z,33.77
2019-01-27T02:57:30.609Z,34.27
2019-01-27T03:00:00.899Z,35.57
2019-01-27T03:02:31.246Z,34.07
2019-01-27T03:05:03.320Z,34.13
2019-01-27T03:07:37.432Z,33.67
2019-01-27T03:10:11.803Z,34.73
2019-01-27T03:12:42.098Z,32.73
2019-01-27T03:15:12.440Z,33.67
2019-01-27T03:17:42.812Z,34.03
2019-01-27T03:20:13.288Z,34.27
2019-01-27T03:22:43.610Z,35.50
2019-01-27T03:25:13.926Z,33.03
2019-01-27T03:27:44.241Z,35.47
2019-01-27T03:30:17.069Z,32.17
2019-01-27T03:32:47.395Z,33.63
2019-01-27T03:35:17.740Z,31.73
2019-01-27T03:37:48.044Z,33.53
2019-01-27T03:40:18.382Z,33.30
2019-01-27T03:42:48.906Z,33.33
2019-01-27T03:45:19.185Z,33.90
2019-01-27T03:47:49.493Z,33.33
2019-01-27T03:50:19.796Z,32.83
2019-01-27T03:52:50.119Z,30.93
2019-01-27T03:55:20.454Z,31.93
2019-01-27T03:57:50.776Z,32.43
2019-01-27T04:00:21.530Z,31.23
2019-01-27T04:02:51.836Z,29.57
2019-01-27T04:05:22.179Z,31.83
2019-01-27T04:07:52.482Z,36.67
2019-01-27T04:10:22.850Z,31.60
2019-01-27T04:12:53.192Z,29.83
2019-01-27T04:15:23.483Z,30.47
2019-01-27T04:17:53.778Z,31.10
2019-01-27T04:20:24.162Z,31.20
2019-01-27T04:22:54.457Z,30.17
2019-01-27T04:25:24.834Z,29.87
2019-01-27T04:27:55.224Z,28.97
2019-01-27T04:30:29.973Z,27.17
2019-01-27T04:33:00.302Z,26.33
2019-01-27T04:35:30.729Z,25.80
2019-01-27T04:38:01.011Z,26.50
2019-01-27T04:40:31.338Z,26.23
2019-01-27T04:43:01.661Z,26.70
2019-01-27T04:45:34.597Z,25.87
2019-01-27T04:48:05.439Z,26.70
2019-01-27T04:50:35.752Z,27.07
2019-01-27T04:53:07.094Z,26.90
2019-01-27T04:55:37.381Z,25.37
2019-01-27T04:58:07.705Z,24.80
2019-01-27T05:00:38.021Z,23.23
2019-01-27T05:03:25.791Z,25.47
2019-01-27T05:05:56.108Z,24.33
2019-01-27T05:08:26.503Z,22.73
2019-01-27T05:10:56.798Z,21.37
2019-01-27T05:13:27.236Z,23.40
2019-01-27T05:15:57.549Z,22.87
2019-01-27T05:18:27.864Z,22.10
2019-01-27T05:20:58.214Z,24.27
2019-01-27T05:23:28.466Z,23.43
2019-01-27T05:25:58.792Z,22.70
2019-01-27T05:28:29.181Z,21.83
2019-01-27T05:30:59.552Z,23.50
2019-01-27T05:33:29.930Z,23.30
2019-01-27T05:36:00.527Z,22.53
2019-01-27T05:38:31.030Z,22.93
2019-01-27T05:41:01.456Z,22.50
2019-01-27T05:43:31.863Z,22.87
2019-01-27T05:46:02.214Z,23.17
2019-01-27T05:48:32.662Z,22.10
2019-01-27T05:51:03.036Z,21.43
2019-01-27T05:53:33.480Z,22.07
2019-01-27T05:56:03.834Z,22.50
2019-01-27T05:58:34.147Z,22.47
2019-01-27T06:01:04.478Z,22.20
2019-01-27T06:03:35.041Z,23.60
2019-01-27T06:06:05.403Z,22.03
2019-01-27T06:08:35.875Z,22.03
2019-01-27T06:11:06.214Z,20.93
2019-01-27T06:13:36.565Z,19.40
2019-01-27T06:16:06.901Z,22.00
2019-01-27T06:18:37.226Z,23.67
2019-01-27T06:21:07.578Z,25.87
2019-01-27T06:23:38.174Z,21.57
2019-01-27T06:26:08.684Z,21.60
2019-01-27T06:28:38.984Z,19.93
2019-01-27T06:31:09.285Z,20.60
2019-01-27T06:33:58.482Z,21.53
2019-01-27T06:36:28.790Z,22.87
2019-01-27T06:38:59.124Z,22.47
2019-01-27T06:41:29.478Z,30.93
2019-01-27T06:44:00.042Z,26.67
2019-01-27T06:46:30.371Z,28.83
2019-01-27T06:49:00.711Z,28.57
2019-01-27T06:51:31.088Z,30.10
2019-01-27T06:54:01.385Z,21.63
2019-01-27T06:56:31.685Z,24.70
2019-01-27T06:59:29.770Z,23.10
2019-01-27T07:02:35.124Z,24.23
2019-01-27T07:05:24.351Z,21.53
2019-01-27T07:08:11.972Z,24.77
2019-01-27T07:11:13.409Z,26.47
2019-01-27T07:14:02.612Z,27.13
2019-01-27T07:16:51.824Z,28.57
2019-01-27T07:19:41.038Z,29.03
2019-01-27T07:22:33.372Z,24.63
2019-01-27T07:25:21.751Z,26.00
2019-01-27T07:28:16.862Z,23.23
2019-01-27T07:31:00.286Z,23.23
2019-01-27T07:33:52.536Z,29.87
2019-01-27T07:36:50.871Z,28.27
2019-01-27T07:39:52.075Z,22.50
2019-01-27T07:42:53.176Z,25.13
2019-01-27T07:45:34.041Z,21.77
2019-01-27T07:48:19.512Z,21.40
2019-01-27T07:51:17.687Z,23.87
2019-01-27T07:54:12.685Z,27.77
2019-01-27T07:57:00.288Z,26.63
2019-01-27T07:59:45.532Z,23.03
2019-01-27T08:02:34.734Z,25.93
2019-01-27T08:05:24.099Z,30.77
2019-01-27T08:08:13.306Z,25.97
2019-01-27T08:11:14.664Z,26.67
2019-01-27T08:13:50.314Z,21.87
2019-01-27T08:16:28.150Z,20.20
2019-01-27T08:19:20.158Z,22.77
2019-01-27T08:22:13.149Z,20.80
2019-01-27T08:25:01.396Z,22.03
2019-01-27T08:28:08.659Z,24.10
2019-01-27T08:30:57.911Z,30.40
2019-01-27T08:33:56.005Z,24.80
2019-01-27T08:36:54.309Z,25.23
2019-01-27T08:39:35.549Z,27.30
2019-01-27T08:42:24.892Z,30.37
2019-01-27T08:45:16.867Z,33.27
2019-01-27T08:47:48.202Z,38.37
2019-01-27T08:50:18.727Z,22.33
2019-01-27T08:52:49.068Z,25.43
2019-01-27T08:55:19.423Z,24.63
2019-01-27T08:57:50.749Z,23.67
2019-01-27T09:00:28.661Z,24.27
2019-01-27T09:03:23.992Z,30.43
2019-01-27T09:06:15.982Z,30.17
2019-01-27T09:08:59.328Z,25.80
2019-01-27T09:11:53.035Z,24.13
2019-01-27T09:14:48.367Z,27.20
2019-01-27T09:17:52.457Z,26.60
2019-01-27T09:20:38.009Z,24.20
2019-01-27T09:23:39.133Z,24.07
2019-01-27T09:26:29.759Z,21.70
2019-01-27T09:29:17.847Z,22.45
2019-01-27T09:32:09.518Z,20.45
2019-01-27T09:35:01.503Z,21.42
2019-01-27T09:37:53.747Z,21.48
2019-01-27T09:40:49.153Z,20.90
2019-01-27T09:43:41.269Z,20.52
2019-01-27T09:46:30.523Z,18.92
2019-01-27T09:49:25.617Z,21.70
2019-01-27T09:52:06.996Z,19.17
2019-01-27T09:55:04.972Z,19.32
2019-01-27T09:57:40.660Z,18.27
2019-01-27T10:00:22.788Z,18.75
2019-01-27T10:03:04.321Z,20.30
2019-01-27T10:06:08.724Z,18.77
2019-01-27T10:08:46.263Z,18.07
2019-01-27T10:11:26.814Z,16.65
2019-01-27T10:14:22.016Z,17.27
2019-01-27T10:17:14.159Z,18.17
2019-01-27T10:20:06.334Z,18.25
2019-01-27T10:22:50.236Z,29.12
2019-01-27T10:25:42.675Z,23.55
2019-01-27T10:28:34.969Z,17.45
2019-01-27T10:31:16.239Z,18.85
2019-01-27T10:34:08.253Z,17.85
2019-01-27T10:37:03.624Z,16.57
2019-01-27T10:39:56.666Z,17.07
2019-01-27T10:42:31.888Z,15.72
2019-01-27T10:45:18.004Z,15.72
2019-01-27T10:48:05.592Z,17.45
2019-01-27T10:50:47.368Z,16.52
2019-01-27T10:53:42.349Z,18.32
2019-01-27T10:56:49.849Z,15.72
2019-01-27T10:59:57.163Z,16.45
2019-01-27T11:03:04.131Z,18.27
2019-01-27T11:05:59.515Z,17.27
2019-01-27T11:08:48.373Z,16.35
2019-01-27T11:11:37.606Z,18.27
2019-01-27T11:14:15.192Z,20.88
2019-01-27T11:17:11.265Z,17.60
2019-01-27T11:19:58.870Z,16.82
2019-01-27T11:22:39.711Z,18.42
2019-01-27T11:25:28.072Z,18.42
2019-01-27T11:28:24.807Z,19.37
2019-01-27T11:31:12.850Z,17.27
2019-01-27T11:34:02.289Z,17.10
2019-01-27T11:36:50.363Z,16.27
2019-01-27T11:39:48.724Z,17.37
2019-01-27T11:42:38.019Z,21.15
2019-01-27T11:45:26.985Z,17.17
2019-01-27T11:48:05.186Z,16.40
2019-01-27T11:50:45.908Z,17.82
2019-01-27T11:53:16.272Z,16.45
2019-01-27T11:55:46.703Z,17.42
2019-01-27T11:58:18.156Z,19.73
2019-01-27T12:00:52.322Z,18.50
2019-01-27T12:03:22.697Z,25.00
2019-01-27T12:05:53.184Z,19.60
2019-01-27T12:08:23.725Z,19.75
2019-01-27T12:10:54.112Z,18.73
2019-01-27T12:13:24.493Z,19.45
2019-01-27T12:15:54.875Z,19.75
2019-01-27T12:18:25.226Z,18.95
2019-01-27T12:20:55.618Z,19.40
2019-01-27T12:23:25.964Z,20.02
2019-01-27T12:25:56.351Z,18.75
2019-01-27T12:28:26.712Z,20.25
2019-01-27T12:30:57.073Z,20.02
2019-01-27T12:33:27.445Z,18.25
2019-01-27T12:35:57.836Z,19.98
2019-01-27T12:38:28.235Z,20.45
2019-01-27T12:40:58.634Z,21.62
2019-01-27T12:43:29.037Z,22.98
2019-01-27T12:45:59.403Z,20.80
2019-01-27T12:48:29.820Z,22.85
2019-01-27T12:51:00.282Z,20.37
2019-01-27T12:53:30.639Z,20.65
2019-01-27T12:56:01.038Z,23.30
2019-01-27T12:58:32.400Z,22.75
2019-01-27T13:01:06.603Z,20.32
2019-01-27T13:03:36.974Z,29.27
2019-01-27T13:06:07.368Z,43.68
2019-01-27T13:08:37.784Z,25.82
2019-01-27T13:11:08.174Z,27.15
2019-01-27T13:13:38.612Z,26.15
2019-01-27T13:16:09.054Z,26.90
2019-01-27T13:18:40.408Z,26.77
2019-01-27T13:21:10.814Z,26.57
2019-01-27T13:23:41.172Z,27.82
2019-01-27T13:26:11.641Z,26.73
2019-01-27T13:28:42.129Z,25.00
2019-01-27T13:31:12.554Z,23.85
2019-01-27T13:33:42.966Z,26.15
2019-01-27T13:36:13.537Z,26.07
2019-01-27T13:38:50.814Z,23.00
2019-01-27T13:41:16.022Z,25.95
2019-01-27T13:43:46.458Z,40.75
2019-01-27T13:46:16.851Z,26.27
2019-01-27T13:48:47.191Z,28.05
2019-01-27T13:51:17.644Z,23.57
2019-01-27T13:53:48.003Z,33.45
2019-01-27T13:56:18.384Z,25.57
2019-01-27T13:58:48.897Z,28.67
2019-01-27T14:01:19.205Z,22.67
2019-01-27T14:03:49.650Z,27.40
2019-01-27T14:06:20.103Z,25.13
2019-01-27T14:08:50.551Z,24.70
2019-01-27T14:11:22.329Z,26.87
2019-01-27T14:13:52.771Z,24.52
2019-01-27T14:16:23.251Z,28.07
2019-01-27T14:18:53.609Z,28.67
2019-01-27T14:21:24.002Z,30.37
2019-01-27T14:23:54.378Z,28.20
2019-01-27T14:26:24.789Z,22.67
2019-01-27T14:28:55.157Z,22.67
2019-01-27T14:31:25.528Z,34.53
2019-01-27T14:33:55.886Z,33.05
2019-01-27T14:36:26.247Z,37.10
2019-01-27T14:38:56.650Z,41.90
2019-01-27T14:41:27.041Z,30.88
2019-01-27T14:43:57.432Z,28.62
2019-01-27T14:46:27.791Z,25.17
2019-01-27T14:48:58.179Z,41.58
2019-01-27T14:51:28.595Z,37.83
2019-01-27T14:53:58.964Z,51.65
2019-01-27T14:56:29.342Z,45.40
2019-01-27T14:58:59.777Z,52.60
2019-01-27T15:01:30.137Z,64.33
2019-01-27T15:04:00.502Z,43.20
2019-01-27T15:06:30.942Z,51.87
2019-01-27T15:09:01.406Z,43.10
2019-01-27T15:11:33.041Z,66.97
2019-01-27T15:14:03.520Z,87.70
2019-01-27T15:16:33.918Z,39.87
2019-01-27T15:19:04.365Z,34.60
2019-01-27T15:21:34.755Z,37.67
2019-01-27T15:24:05.219Z,35.33
2019-01-27T15:26:35.608Z,38.60
2019-01-27T15:29:06.558Z,46.43
2019-01-27T15:31:36.926Z,42.73
2019-01-27T15:34:07.355Z,41.03
2019-01-27T15:36:38.153Z,47.63
2019-01-27T15:39:10.696Z,41.50
2019-01-27T15:41:41.250Z,40.87
2019-01-27T15:44:11.644Z,44.37
2019-01-27T15:46:42.219Z,46.70
2019-01-27T15:49:12.691Z,41.73
2019-01-27T15:51:43.120Z,38.90
2019-01-27T15:54:13.528Z,43.33
2019-01-27T15:56:43.915Z,48.90
2019-01-27T15:59:14.273Z,49.67
2019-01-27T16:01:44.716Z,49.30
2019-01-27T16:04:15.133Z,61.97
2019-01-27T16:06:46.096Z,57.53
2019-01-27T16:09:16.439Z,54.37
2019-01-27T16:11:46.873Z,54.50
2019-01-27T16:14:18.310Z,53.60
2019-01-27T16:16:48.728Z,50.20
2019-01-27T16:19:19.141Z,56.80
2019-01-27T16:21:49.557Z,77.53
2019-01-27T16:24:27.196Z,90.93
2019-01-27T16:26:57.598Z,57.40
2019-01-27T16:29:44.449Z,60.80
2019-01-27T16:32:23.182Z,63.37
2019-01-27T16:34:58.202Z,63.43
2019-01-27T16:37:28.607Z,56.80
2019-01-27T16:39:58.928Z,53.37
2019-01-27T16:42:29.469Z,56.33
2019-01-27T16:45:00.260Z,56.93
2019-01-27T16:47:30.778Z,54.43
2019-01-27T16:50:01.269Z,53.47
2019-01-27T16:52:31.761Z,54.33
2019-01-27T16:55:02.240Z,51.77
2019-01-27T16:57:32.764Z,52.73
2019-01-27T17:00:03.340Z,57.03
2019-01-27T17:02:35.630Z,62.47
2019-01-27T17:05:06.283Z,60.93
2019-01-27T17:07:36.787Z,63.30
2019-01-27T17:10:09.426Z,63.77
2019-01-27T17:12:40.247Z,69.27
2019-01-27T17:15:11.512Z,79.57
2019-01-27T17:17:42.071Z,76.37
2019-01-27T17:20:14.547Z,83.03
2019-01-27T17:22:45.129Z,95.93
2019-01-27T17:25:16.462Z,104.00
2019-01-27T17:27:46.989Z,106.27
2019-01-27T17:30:18.140Z,110.67
2019-01-27T17:32:48.753Z,114.20
2019-01-27T17:35:19.334Z,115.00
2019-01-27T17:37:49.858Z,130.87
2019-01-27T17:40:20.408Z,193.97
2019-01-27T17:42:50.955Z,173.27
2019-01-27T17:45:21.463Z,165.60
2019-01-27T17:47:52.015Z,117.33
2019-01-27T17:50:22.597Z,94.40
2019-01-27T17:52:53.251Z,109.23
2019-01-27T17:55:41.221Z,142.17
2019-01-27T17:58:37.451Z,148.60
2019-01-27T18:01:34.820Z,149.00
2019-01-27T18:04:30.080Z,197.77
2019-01-27T18:07:19.441Z,240.83
2019-01-27T18:10:07.235Z,175.20
2019-01-27T18:13:09.057Z,179.40
2019-01-27T18:15:40.147Z,82.87
2019-01-27T18:18:10.803Z,134.27
2019-01-27T18:20:41.418Z,117.10
2019-01-27T18:23:11.989Z,112.63
2019-01-27T18:25:42.669Z,106.77
2019-01-27T18:28:13.314Z,113.60
2019-01-27T18:30:43.846Z,122.57
2019-01-27T18:33:14.366Z,121.67
2019-01-27T18:35:44.856Z,88.47
2019-01-27T18:38:15.710Z,82.73
2019-01-27T18:40:46.290Z,82.00
2019-01-27T18:43:16.828Z,84.17
2019-01-27T18:45:47.379Z,86.87
2019-01-27T18:48:17.939Z,88.20
2019-01-27T18:50:48.508Z,79.37
2019-01-27T18:53:36.523Z,71.57
2019-01-27T18:56:14.736Z,58.67
2019-01-27T18:59:04.199Z,79.43
2019-01-27T19:01:53.641Z,76.70
2019-01-27T19:04:46.238Z,77.93
2019-01-27T19:07:34.697Z,83.03
2019-01-27T19:10:27.484Z,79.23
2019-01-27T19:13:11.203Z,73.20
2019-01-27T19:15:49.062Z,82.87
2019-01-27T19:18:29.026Z,83.57
2019-01-27T19:21:11.886Z,88.33
2019-01-27T19:24:01.243Z,88.50
2019-01-27T19:26:50.739Z,85.90
2019-01-27T19:29:46.146Z,91.53
2019-01-27T19:32:26.505Z,92.93
2019-01-27T19:35:07.943Z,88.17
2019-01-27T19:37:48.622Z,88.67
2019-01-27T19:40:41.707Z,86.53
2019-01-27T19:43:31.904Z,96.30
2019-01-27T19:46:19.908Z,102.77
2019-01-27T19:49:12.033Z,98.43
2019-01-27T19:51:50.160Z,102.20
2019-01-27T19:54:34.012Z,99.93
2019-01-27T19:57:33.609Z,90.83
2019-01-27T20:00:17.002Z,94.80
2019-01-27T20:03:05.369Z,84.87
2019-01-27T20:06:10.684Z,87.53
2019-01-27T20:09:18.314Z,82.03
2019-01-27T20:12:06.060Z,75.63
2019-01-27T20:14:58.216Z,67.80
2019-01-27T20:17:46.282Z,73.63
2019-01-27T20:20:38.830Z,84.93
2019-01-27T20:23:24.123Z,83.07
2019-01-27T20:26:16.535Z,66.57
2019-01-27T20:28:56.214Z,61.90
2019-01-27T20:31:45.628Z,90.67
2019-01-27T20:34:25.526Z,101.20
2019-01-27T20:37:14.134Z,105.27
2019-01-27T20:40:02.230Z,93.53
2019-01-27T20:42:43.156Z,67.67
2019-01-27T20:45:38.691Z,66.17
2019-01-27T20:48:46.006Z,71.70
2019-01-27T20:51:35.392Z,62.20
2019-01-27T20:54:22.589Z,66.10
2019-01-27T20:57:05.563Z,71.13
2019-01-27T20:59:53.263Z,67.60
2019-01-27T21:02:48.128Z,69.30
2019-01-27T21:05:37.510Z,73.00
2019-01-27T21:08:22.181Z,75.37
2019-01-27T21:11:17.325Z,84.63
2019-01-27T21:14:12.718Z,94.17
2019-01-27T21:16:53.074Z,89.50
2019-01-27T21:19:28.638Z,93.30
2019-01-27T21:21:59.384Z,90.10
2019-01-27T21:24:31.236Z,95.43
2019-01-27T21:27:06.337Z,92.87
2019-01-27T21:29:34.035Z,85.00
2019-01-27T21:32:04.544Z,89.03
2019-01-27T21:34:35.200Z,81.13
2019-01-27T21:37:05.742Z,80.90
2019-01-27T21:39:36.238Z,87.87
2019-01-27T21:42:06.699Z,113.43
2019-01-27T21:44:37.193Z,110.27
2019-01-27T21:47:07.733Z,80.43
2019-01-27T21:49:38.184Z,84.30
2019-01-27T21:52:08.685Z,86.30
2019-01-27T21:54:39.165Z,87.83
2019-01-27T21:57:09.824Z,88.90
2019-01-27T21:59:40.363Z,83.00
2019-01-27T22:02:10.838Z,85.40
2019-01-27T22:04:42.320Z,79.43
2019-01-27T22:07:12.821Z,67.97
2019-01-27T22:09:43.285Z,69.40
2019-01-27T22:12:13.840Z,76.03
2019-01-27T22:14:44.432Z,71.30
2019-01-27T22:17:14.878Z,74.07
2019-01-27T22:19:45.364Z,79.53
2019-01-27T22:22:15.987Z,86.50
2019-01-27T22:24:46.479Z,76.00
2019-01-27T22:27:17.037Z,79.17
2019-01-27T22:29:47.511Z,94.13
2019-01-27T22:32:18.002Z,91.80
2019-01-27T22:34:48.486Z,85.70
2019-01-27T22:37:18.995Z,84.17
2019-01-27T22:39:49.476Z,102.13
2019-01-27T22:42:19.966Z,90.47
2019-01-27T22:44:50.415Z,81.67
2019-01-27T22:47:20.897Z,85.03
2019-01-27T22:49:51.388Z,84.77
2019-01-27T22:52:21.866Z,84.50
2019-01-27T22:54:52.310Z,91.33
2019-01-27T22:57:22.764Z,91.50
2019-01-27T22:59:53.232Z,95.73
2019-01-27T23:02:23.694Z,87.30
2019-01-27T23:04:54.196Z,83.40
2019-01-27T23:07:24.640Z,90.33
2019-01-27T23:09:55.141Z,83.57
2019-01-27T23:12:26.791Z,77.90
2019-01-27T23:14:57.251Z,82.83
2019-01-27T23:17:27.709Z,79.77
2019-01-27T23:19:58.164Z,92.60
2019-01-27T23:22:28.801Z,109.00
2019-01-27T23:24:59.286Z,108.47
2019-01-27T23:27:29.746Z,101.63
2019-01-27T23:30:00.245Z,90.37
2019-01-27T23:32:30.806Z,81.57
2019-01-27T23:35:01.356Z,70.40
2019-01-27T23:37:32.001Z,59.13
2019-01-27T23:40:02.501Z,60.47
2019-01-27T23:42:32.913Z,63.67
2019-01-27T23:45:03.404Z,56.53
2019-01-27T23:47:34.854Z,55.23
2019-01-27T23:50:05.521Z,52.37
2019-01-27T23:52:36.007Z,49.30
2019-01-27T23:55:06.491Z,49.73
2019-01-27T23:57:36.952Z,49.37
